createdAt,value
2023-02-11T00:00:40.589Z,100612.44
2023-02-11T00:03:07.884Z,100610.47
2023-02-11T00:05:35.219Z,100611.00
2023-02-11T00:08:03.866Z,100605.56
2023-02-11T00:10:31.038Z,100604.47
2023-02-11T00:12:57.977Z,100605.03
2023-02-11T00:15:25.029Z,100604.75
2023-02-11T00:17:52.332Z,100601.97
2023-02-11T00:20:19.494Z,100601.66
2023-02-11T00:22:46.400Z,100594.84
2023-02-11T00:25:14.784Z,100596.41
2023-02-11T00:27:41.683Z,100595.50
2023-02-11T00:30:10.463Z,100592.94
2023-02-11T00:32:38.482Z,100587.03
2023-02-11T00:35:06.477Z,100579.63
2023-02-11T00:37:36.578Z,100582.13
2023-02-11T00:40:06.660Z,100582.97
2023-02-11T00:42:37.998Z,100579.53
2023-02-11T00:45:05.482Z,100579.47
2023-02-11T00:47:32.408Z,100571.13
2023-02-11T00:50:00.988Z,100577.91
2023-02-11T00:52:28.194Z,100578.00
2023-02-11T00:54:55.108Z,100574.97
2023-02-11T00:57:22.024Z,100570.13
2023-02-11T00:59:51.708Z,100577.66
2023-02-11T01:02:18.965Z,100572.84
2023-02-11T01:04:45.900Z,100575.44
2023-02-11T01:07:12.859Z,100575.88
2023-02-11T01:09:39.786Z,100585.47
2023-02-11T01:12:07.071Z,100581.28
2023-02-11T01:14:34.030Z,100577.13
2023-02-11T01:17:02.341Z,100571.50
2023-02-11T01:19:29.309Z,100572.19
2023-02-11T01:21:56.258Z,100572.00
2023-02-11T01:24:23.187Z,100567.16
2023-02-11T01:26:52.979Z,100579.50
2023-02-11T01:29:20.277Z,100583.03
2023-02-11T01:31:47.507Z,100576.69
2023-02-11T01:34:16.201Z,100566.91
2023-02-11T01:36:43.277Z,100565.63
2023-02-11T01:39:10.384Z,100555.75
2023-02-11T01:41:37.757Z,100561.38
2023-02-11T01:44:28.455Z,100563.72
2023-02-11T01:46:55.930Z,100559.47
2023-02-11T01:49:27.842Z,100569.28
2023-02-11T01:51:59.401Z,100569.91
2023-02-11T01:54:48.730Z,100567.09
2023-02-11T01:57:22.866Z,100571.13
2023-02-11T01:59:58.206Z,100574.41
2023-02-11T02:02:27.045Z,100566.84
2023-02-11T02:05:05.965Z,100565.41
2023-02-11T02:07:37.352Z,100569.78
2023-02-11T02:10:09.777Z,100573.31
2023-02-11T02:12:37.004Z,100569.81
2023-02-11T02:15:27.274Z,100570.47
2023-02-11T02:18:11.402Z,100572.84
2023-02-11T02:21:17.969Z,100570.28
2023-02-11T02:24:05.172Z,100576.22
2023-02-11T02:27:06.807Z,100587.97
2023-02-11T02:30:01.001Z,100577.16
2023-02-11T02:32:39.493Z,100576.31
2023-02-11T02:35:15.655Z,100578.00
2023-02-11T02:37:51.577Z,100577.09
2023-02-11T02:40:23.564Z,100569.47
2023-02-11T02:42:51.480Z,100570.34
2023-02-11T02:45:19.493Z,100570.50
2023-02-11T02:47:47.902Z,100572.13
2023-02-11T02:50:17.876Z,100578.91
2023-02-11T02:52:57.784Z,100577.34
2023-02-11T02:55:54.634Z,100579.00
2023-02-11T02:58:45.980Z,100561.59
2023-02-11T03:01:25.641Z,100567.66
2023-02-11T03:04:02.825Z,100563.63
2023-02-11T03:06:34.349Z,100567.75
2023-02-11T03:09:08.489Z,100565.38
2023-02-11T03:11:37.847Z,100573.94
2023-02-11T03:14:07.951Z,100574.88
2023-02-11T03:16:39.248Z,100572.28
2023-02-11T03:19:12.753Z,100568.09
2023-02-11T03:21:42.056Z,100568.00
2023-02-11T03:24:13.462Z,100565.50
2023-02-11T03:26:44.403Z,100565.75
2023-02-11T03:29:17.967Z,100567.66
2023-02-11T03:31:52.997Z,100568.59
2023-02-11T03:34:28.081Z,100565.34
2023-02-11T03:36:59.884Z,100557.34
2023-02-11T03:39:32.045Z,100562.50
2023-02-11T03:42:02.014Z,100556.63
2023-02-11T03:44:34.830Z,100558.09
2023-02-11T03:47:05.567Z,100544.66
2023-02-11T03:49:36.530Z,100546.25
2023-02-11T03:52:05.962Z,100546.31
2023-02-11T03:54:33.305Z,100552.00
2023-02-11T03:57:01.845Z,100549.47
2023-02-11T03:59:29.105Z,100537.75
2023-02-11T04:01:56.204Z,100537.91
2023-02-11T04:04:23.312Z,100535.53
2023-02-11T04:06:51.713Z,100535.59
2023-02-11T04:09:18.705Z,100549.78
2023-02-11T04:11:45.626Z,100542.28
2023-02-11T04:14:12.544Z,100543.03
2023-02-11T04:16:39.532Z,100534.63
2023-02-11T04:19:06.550Z,100542.97
2023-02-11T04:21:33.458Z,100538.00
2023-02-11T04:24:01.756Z,100542.06
2023-02-11T04:26:28.663Z,100542.91
2023-02-11T04:28:55.647Z,100542.81
2023-02-11T04:31:22.782Z,100541.19
2023-02-11T04:33:49.742Z,100532.94
2023-02-11T04:36:16.632Z,100532.97
2023-02-11T04:38:43.535Z,100533.78
2023-02-11T04:41:11.822Z,100533.81
2023-02-11T04:43:38.790Z,100520.59
2023-02-11T04:46:05.897Z,100528.13
2023-02-11T04:48:32.864Z,100529.88
2023-02-11T04:50:59.766Z,100529.06
2023-02-11T04:53:26.776Z,100522.38
2023-02-11T04:55:53.768Z,100526.53
2023-02-11T04:58:22.134Z,100527.38
2023-02-11T05:00:51.378Z,100525.75
2023-02-11T05:03:18.591Z,100526.63
2023-02-11T05:05:45.608Z,100530.72
2023-02-11T05:08:13.432Z,100526.56
2023-02-11T05:10:40.332Z,100509.19
2023-02-11T05:13:07.239Z,100506.06
2023-02-11T05:15:35.607Z,100512.78
2023-02-11T05:18:02.594Z,100501.09
2023-02-11T05:20:29.583Z,100503.56
2023-02-11T05:22:56.499Z,100497.81
2023-02-11T05:25:23.395Z,100509.44
2023-02-11T05:27:50.316Z,100510.34
2023-02-11T05:30:17.399Z,100517.06
2023-02-11T05:32:45.653Z,100512.94
2023-02-11T05:35:12.659Z,100511.19
2023-02-11T05:37:39.749Z,100522.66
2023-02-11T05:40:07.682Z,100515.94
2023-02-11T05:42:37.677Z,100516.03
2023-02-11T05:45:05.159Z,100521.78
2023-02-11T05:47:32.313Z,100521.69
2023-02-11T05:50:00.600Z,100526.19
2023-02-11T05:52:27.555Z,100519.59
2023-02-11T05:54:54.445Z,100514.72
2023-02-11T05:57:21.350Z,100521.25
2023-02-11T05:59:48.281Z,100519.00
2023-02-11T06:02:15.740Z,100519.47
2023-02-11T06:04:44.323Z,100520.94
2023-02-11T06:07:12.811Z,100530.25
2023-02-11T06:09:39.963Z,100524.66
2023-02-11T06:12:07.220Z,100529.31
2023-02-11T06:14:34.386Z,100513.94
2023-02-11T06:17:01.748Z,100524.59
2023-02-11T06:19:28.788Z,100526.69
2023-02-11T06:21:56.343Z,100530.53
2023-02-11T06:24:51.087Z,100532.91
2023-02-11T06:27:12.771Z,100533.19
2023-02-11T06:29:39.714Z,100538.78
2023-02-11T06:32:08.664Z,100546.13
2023-02-11T06:34:38.892Z,100538.44
2023-02-11T06:37:06.386Z,100544.25
2023-02-11T06:39:34.759Z,100550.59
2023-02-11T06:42:02.902Z,100533.59
2023-02-11T06:44:29.864Z,100538.19
2023-02-11T06:46:56.891Z,100535.47
2023-02-11T06:49:23.967Z,100541.78
2023-02-11T06:51:50.890Z,100531.84
2023-02-11T06:54:17.907Z,100552.53
2023-02-11T06:56:46.324Z,100540.94
2023-02-11T06:59:16.359Z,100541.19
2023-02-11T07:01:43.468Z,100539.59
2023-02-11T07:04:10.574Z,100528.44
2023-02-11T07:06:37.705Z,100530.38
2023-02-11T07:09:05.520Z,100535.41
2023-02-11T07:11:33.240Z,100533.34
2023-02-11T07:14:04.598Z,100536.69
2023-02-11T07:16:32.376Z,100530.41
2023-02-11T07:18:59.470Z,100517.44
2023-02-11T07:21:26.748Z,100517.44
2023-02-11T07:23:53.984Z,100515.19
2023-02-11T07:26:23.258Z,100518.00
2023-02-11T07:28:51.435Z,100519.00
2023-02-11T07:31:22.066Z,100516.72
2023-02-11T07:33:49.351Z,100509.13
2023-02-11T07:36:16.858Z,100511.06
2023-02-11T07:38:44.478Z,100498.44
2023-02-11T07:41:15.216Z,100502.47
2023-02-11T07:43:43.231Z,100502.81
2023-02-11T07:46:12.933Z,100491.66
2023-02-11T07:48:41.306Z,100504.13
2023-02-11T07:51:10.030Z,100500.44
2023-02-11T07:53:37.019Z,100502.25
2023-02-11T07:56:05.260Z,100505.97
2023-02-11T07:58:32.911Z,100502.78
2023-02-11T08:01:02.308Z,100491.59
2023-02-11T08:03:29.461Z,100499.94
2023-02-11T08:05:58.043Z,100493.03
2023-02-11T08:08:26.825Z,100487.28
2023-02-11T08:10:53.791Z,100488.66
2023-02-11T08:13:20.765Z,100487.25
2023-02-11T08:15:50.849Z,100487.50
2023-02-11T08:18:19.913Z,100478.25
2023-02-11T08:20:46.886Z,100475.69
2023-02-11T08:23:18.247Z,100480.69
2023-02-11T08:25:45.134Z,100476.03
2023-02-11T08:28:12.519Z,100472.03
2023-02-11T08:30:39.536Z,100463.00
2023-02-11T08:33:06.495Z,100468.19
2023-02-11T08:35:35.266Z,100467.56
2023-02-11T08:38:02.166Z,100451.38
2023-02-11T08:40:30.492Z,100453.53
2023-02-11T08:42:57.379Z,100456.44
2023-02-11T08:45:24.312Z,100446.50
2023-02-11T08:47:51.294Z,100464.16
2023-02-11T08:50:18.310Z,100458.91
2023-02-11T08:52:47.584Z,100463.41
2023-02-11T08:55:14.632Z,100464.25
2023-02-11T08:57:43.012Z,100456.16
2023-02-11T09:00:11.216Z,100456.63
2023-02-11T09:02:38.262Z,100451.16
2023-02-11T09:05:05.881Z,100451.66
2023-02-11T09:07:32.825Z,100450.03
2023-02-11T09:09:59.781Z,100443.38
2023-02-11T09:12:26.689Z,100444.59
2023-02-11T09:14:55.254Z,100441.41
2023-02-11T09:17:22.223Z,100448.78
2023-02-11T09:19:49.122Z,100439.44
2023-02-11T09:22:18.640Z,100436.16
2023-02-11T09:24:45.570Z,100438.56
2023-02-11T09:27:12.459Z,100433.31
2023-02-11T09:29:39.381Z,100427.53
2023-02-11T09:32:10.842Z,100424.75
2023-02-11T09:34:38.004Z,100417.22
2023-02-11T09:37:04.974Z,100407.22
2023-02-11T09:39:31.864Z,100405.84
2023-02-11T09:42:30.407Z,100405.06
2023-02-11T09:44:58.091Z,100402.22
2023-02-11T09:47:33.083Z,100396.34
2023-02-11T09:50:04.267Z,100381.75
2023-02-11T09:52:37.097Z,100381.53
2023-02-11T09:55:06.425Z,100378.75
2023-02-11T09:57:35.696Z,100380.81
2023-02-11T10:00:17.458Z,100373.44
2023-02-11T10:02:58.005Z,100369.63
2023-02-11T10:05:40.016Z,100353.72
2023-02-11T10:08:15.897Z,100357.53
2023-02-11T10:10:50.985Z,100346.78
2023-02-11T10:13:35.990Z,100345.88
2023-02-11T10:16:14.878Z,100343.19
2023-02-11T10:19:00.325Z,100344.06
2023-02-11T10:21:35.011Z,100334.91
2023-02-11T10:24:05.675Z,100319.25
2023-02-11T10:26:34.276Z,100315.22
2023-02-11T10:29:10.910Z,100314.47
2023-02-11T10:31:42.478Z,100311.75
2023-02-11T10:34:13.016Z,100305.91
2023-02-11T10:36:42.687Z,100311.00
2023-02-11T10:39:14.888Z,100309.31
2023-02-11T10:41:44.851Z,100303.66
2023-02-11T10:44:23.338Z,100296.28
2023-02-11T10:46:51.374Z,100295.25
2023-02-11T10:49:40.255Z,100289.81
2023-02-11T10:52:15.891Z,100284.63
2023-02-11T10:54:55.276Z,100280.03
2023-02-11T10:57:23.116Z,100282.06
2023-02-11T10:59:55.577Z,100271.53
2023-02-11T11:02:31.966Z,100268.00
2023-02-11T11:05:03.190Z,100269.69
2023-02-11T11:07:31.679Z,100261.16
2023-02-11T11:10:02.577Z,100265.53
2023-02-11T11:12:33.392Z,100262.94
2023-02-11T11:15:02.125Z,100252.88
2023-02-11T11:17:29.772Z,100242.47
2023-02-11T11:20:18.938Z,100254.34
2023-02-11T11:22:47.390Z,100247.75
2023-02-11T11:25:26.651Z,100243.78
2023-02-11T11:27:56.082Z,100245.31
2023-02-11T11:30:27.041Z,100234.25
2023-02-11T11:32:54.727Z,100235.47
2023-02-11T11:35:26.514Z,100236.66
2023-02-11T11:37:55.238Z,100234.75
2023-02-11T11:40:25.814Z,100238.91
2023-02-11T11:43:16.696Z,100225.63
2023-02-11T11:45:54.375Z,100224.97
2023-02-11T11:48:24.048Z,100210.22
2023-02-11T11:50:54.932Z,100209.28
2023-02-11T11:53:28.588Z,100206.28
2023-02-11T11:56:00.738Z,100197.47
2023-02-11T11:58:29.124Z,100197.94
2023-02-11T12:01:06.652Z,100194.38
2023-02-11T12:04:02.525Z,100186.38
2023-02-11T12:06:39.347Z,100185.44
2023-02-11T12:09:15.475Z,100177.13
2023-02-11T12:11:58.853Z,100173.25
2023-02-11T12:14:38.214Z,100172.97
2023-02-11T12:17:13.924Z,100164.00
2023-02-11T12:19:56.334Z,100162.34
2023-02-11T12:22:38.045Z,100155.13
2023-02-11T12:25:25.326Z,100147.44
2023-02-11T12:28:03.252Z,100149.03
2023-02-11T12:30:44.127Z,100148.38
2023-02-11T12:33:24.777Z,100136.38
2023-02-11T12:35:58.491Z,100150.28
2023-02-11T12:38:52.960Z,100137.28
2023-02-11T12:41:59.667Z,100131.25
2023-02-11T12:44:31.459Z,100133.41
2023-02-11T12:47:10.156Z,100129.41
2023-02-11T12:49:53.559Z,100112.72
2023-02-11T12:52:40.942Z,100116.81
2023-02-11T12:55:20.082Z,100120.47
2023-02-11T12:57:48.867Z,100119.22
2023-02-11T13:00:19.012Z,100120.81
2023-02-11T13:02:56.489Z,100119.28
2023-02-11T13:05:28.402Z,100107.59
2023-02-11T13:08:02.076Z,100106.34
2023-02-11T13:10:34.036Z,100104.03
2023-02-11T13:13:18.555Z,100100.97
2023-02-11T13:15:50.207Z,100097.03
2023-02-11T13:18:30.059Z,100102.50
2023-02-11T13:21:05.111Z,100089.28
2023-02-11T13:23:46.781Z,100093.31
2023-02-11T13:26:23.551Z,100094.78
2023-02-11T13:28:55.118Z,100091.63
2023-02-11T13:31:26.745Z,100089.25
2023-02-11T13:33:54.265Z,100083.38
2023-02-11T13:36:26.658Z,100073.94
2023-02-11T13:39:02.716Z,100068.69
2023-02-11T13:41:34.308Z,100070.06
2023-02-11T13:44:22.195Z,100072.22
2023-02-11T13:46:54.288Z,100060.69
2023-02-11T13:49:24.582Z,100054.72
2023-02-11T13:51:53.629Z,100045.78
2023-02-11T13:54:28.493Z,100048.88
2023-02-11T13:57:41.624Z,100045.13
2023-02-11T14:00:47.511Z,100046.06
2023-02-11T14:03:48.372Z,100030.09
2023-02-11T14:06:40.646Z,100028.72
2023-02-11T14:09:30.191Z,100039.00
2023-02-11T14:12:30.464Z,100029.97
2023-02-11T14:15:21.723Z,100024.72
2023-02-11T14:17:50.218Z,100027.19
2023-02-11T14:20:39.300Z,100023.78
2023-02-11T14:23:07.290Z,100012.56
2023-02-11T14:25:34.424Z,100014.81
2023-02-11T14:28:11.117Z,100012.28
2023-02-11T14:30:57.487Z,100004.34
2023-02-11T14:33:43.487Z,100013.19
2023-02-11T14:36:23.055Z,100001.81
2023-02-11T14:39:01.790Z,100007.03
2023-02-11T14:41:32.069Z,100002.81
2023-02-11T14:44:03.697Z,100007.78
2023-02-11T14:46:32.977Z,100009.53
2023-02-11T14:49:03.746Z,100006.50
2023-02-11T14:51:34.969Z,100008.91
2023-02-11T14:54:13.358Z,100005.44
2023-02-11T14:56:40.300Z,99983.59
2023-02-11T14:59:16.998Z,99984.28
2023-02-11T15:01:48.585Z,99982.44
2023-02-11T15:04:25.519Z,99987.25
2023-02-11T15:06:53.146Z,99974.16
2023-02-11T15:09:26.851Z,99974.44
2023-02-11T15:11:55.499Z,99982.84
2023-02-11T15:14:25.824Z,99984.88
2023-02-11T15:16:54.586Z,99982.72
2023-02-11T15:19:26.779Z,99982.44
2023-02-11T15:21:54.168Z,99988.88
2023-02-11T15:24:26.206Z,99981.09
2023-02-11T15:26:57.550Z,99988.34
2023-02-11T15:29:26.431Z,99987.53
2023-02-11T15:32:15.729Z,99974.66
2023-02-11T15:34:45.740Z,99978.00
2023-02-11T15:37:14.858Z,99986.38
2023-02-11T15:39:42.813Z,99980.78
2023-02-11T15:42:24.340Z,99980.78
2023-02-11T15:45:09.924Z,99978.88
2023-02-11T15:47:36.992Z,99975.91
2023-02-11T15:50:07.393Z,99965.59
2023-02-11T15:52:34.600Z,99977.06
2023-02-11T15:55:02.858Z,99971.31
2023-02-11T15:57:29.988Z,99977.44
2023-02-11T16:00:04.381Z,99977.69
2023-02-11T16:02:45.188Z,99971.28
2023-02-11T16:05:31.024Z,99974.47
2023-02-11T16:07:58.447Z,99969.19
2023-02-11T16:10:28.196Z,99955.78
2023-02-11T16:13:15.770Z,99953.22
2023-02-11T16:15:49.755Z,99967.44
2023-02-11T16:18:39.389Z,99964.06
2023-02-11T16:21:16.801Z,99956.75
2023-02-11T16:23:50.868Z,99951.63
2023-02-11T16:26:25.154Z,99946.88
2023-02-11T16:28:52.587Z,99944.81
2023-02-11T16:31:20.041Z,99939.69
2023-02-11T16:33:47.056Z,99947.06
2023-02-11T16:36:19.331Z,99943.03
2023-02-11T16:38:46.511Z,99942.94
2023-02-11T16:41:13.619Z,99943.63
2023-02-11T16:43:40.604Z,99947.06
2023-02-11T16:46:08.817Z,99958.25
2023-02-11T16:48:35.745Z,99942.38
2023-02-11T16:51:03.515Z,99953.53
2023-02-11T16:53:32.331Z,99950.44
2023-02-11T16:55:59.290Z,99943.09
2023-02-11T16:58:27.357Z,99935.84
2023-02-11T17:00:57.085Z,99940.47
2023-02-11T17:03:29.592Z,99937.47
2023-02-11T17:05:57.132Z,99933.47
2023-02-11T17:08:24.194Z,99926.09
2023-02-11T17:10:52.896Z,99938.22
2023-02-11T17:13:20.291Z,99929.09
2023-02-11T17:15:47.359Z,99924.31
2023-02-11T17:18:14.536Z,99927.97
2023-02-11T17:20:41.817Z,99932.59
2023-02-11T17:23:09.397Z,99928.47
2023-02-11T17:25:39.378Z,99919.47
2023-02-11T17:28:12.180Z,99924.69
2023-02-11T17:30:41.762Z,99919.03
2023-02-11T17:33:09.793Z,99917.44
2023-02-11T17:35:41.959Z,99915.03
2023-02-11T17:38:11.074Z,99913.44
2023-02-11T17:40:38.032Z,99909.63
2023-02-11T17:43:05.285Z,99917.81
2023-02-11T17:45:33.818Z,99911.63
2023-02-11T17:48:00.784Z,99921.38
2023-02-11T17:50:29.300Z,99917.94
2023-02-11T17:52:56.908Z,99921.38
2023-02-11T17:55:23.868Z,99919.22
2023-02-11T17:57:50.778Z,99913.34
2023-02-11T18:00:18.734Z,99917.03
2023-02-11T18:02:47.054Z,99918.03
2023-02-11T18:05:14.739Z,99922.44
2023-02-11T18:07:42.050Z,99919.31
2023-02-11T18:10:09.882Z,99905.06
2023-02-11T18:12:37.243Z,99908.38
2023-02-11T18:15:04.678Z,99908.38
2023-02-11T18:17:31.617Z,99914.47
2023-02-11T18:19:59.980Z,99919.97
2023-02-11T18:22:27.268Z,99919.34
2023-02-11T18:24:54.719Z,99924.19
2023-02-11T18:27:22.408Z,99927.06
2023-02-11T18:29:49.458Z,99919.81
2023-02-11T18:32:16.622Z,99925.44
2023-02-11T18:34:43.781Z,99924.81
2023-02-11T18:37:13.398Z,99932.19
2023-02-11T18:39:40.490Z,99926.03
2023-02-11T18:42:07.499Z,99916.59
2023-02-11T18:44:34.474Z,99916.59
2023-02-11T18:47:01.457Z,99912.13
2023-02-11T18:49:28.491Z,99901.22
2023-02-11T18:51:55.636Z,99896.28
2023-02-11T18:54:24.280Z,99896.97
2023-02-11T18:56:51.264Z,99897.75
2023-02-11T18:59:18.199Z,99894.56
2023-02-11T19:01:46.920Z,99886.06
2023-02-11T19:04:18.979Z,99891.56
2023-02-11T19:06:48.387Z,99884.09
2023-02-11T19:09:17.351Z,99881.22
2023-02-11T19:11:54.164Z,99883.97
2023-02-11T19:14:23.284Z,99878.47
2023-02-11T19:16:52.820Z,99889.81
2023-02-11T19:19:22.296Z,99880.97
2023-02-11T19:21:49.449Z,99873.81
2023-02-11T19:24:19.811Z,99883.22
2023-02-11T19:26:49.411Z,99879.09
2023-02-11T19:29:16.945Z,99864.03
2023-02-11T19:31:44.321Z,99862.75
2023-02-11T19:34:13.465Z,99862.06
2023-02-11T19:36:40.684Z,99864.94
2023-02-11T19:39:08.360Z,99862.63
2023-02-11T19:41:35.419Z,99859.72
2023-02-11T19:44:05.069Z,99855.59
2023-02-11T19:46:33.651Z,99860.97
2023-02-11T19:49:01.121Z,99845.69
2023-02-11T19:51:28.605Z,99847.44
2023-02-11T19:53:55.643Z,99852.34
2023-02-11T19:56:23.170Z,99841.53
2023-02-11T19:58:50.179Z,99850.03
2023-02-11T20:01:20.509Z,99844.28
2023-02-11T20:03:50.138Z,99832.25
2023-02-11T20:06:19.712Z,99829.63
2023-02-11T20:08:46.805Z,99825.16
2023-02-11T20:11:15.940Z,99824.94
2023-02-11T20:13:43.518Z,99821.53
2023-02-11T20:16:12.508Z,99813.25
2023-02-11T20:18:41.120Z,99814.06
2023-02-11T20:21:09.000Z,99809.81
2023-02-11T20:23:36.563Z,99802.56
2023-02-11T20:26:07.748Z,99797.75
2023-02-11T20:28:34.841Z,99802.81
2023-02-11T20:31:02.422Z,99794.31
2023-02-11T20:33:31.122Z,99790.88
2023-02-11T20:36:01.198Z,99791.69
2023-02-11T20:38:28.452Z,99783.63
2023-02-11T20:40:55.858Z,99776.81
2023-02-11T20:43:22.982Z,99785.41
2023-02-11T20:45:50.239Z,99769.88
2023-02-11T20:48:17.437Z,99771.72
2023-02-11T20:50:46.638Z,99759.41
2023-02-11T20:53:16.771Z,99762.75
2023-02-11T20:55:43.763Z,99749.44
2023-02-11T20:58:10.715Z,99753.59
2023-02-11T21:00:38.065Z,99747.53
2023-02-11T21:03:05.156Z,99745.25
2023-02-11T21:05:32.200Z,99744.25
2023-02-11T21:07:59.114Z,99743.34
2023-02-11T21:10:27.526Z,99742.22
2023-02-11T21:12:54.510Z,99738.75
2023-02-11T21:15:24.221Z,99731.69
2023-02-11T21:17:51.431Z,99736.41
2023-02-11T21:20:19.027Z,99732.06
2023-02-11T21:22:45.988Z,99726.53
2023-02-11T21:25:13.043Z,99729.84
2023-02-11T21:27:41.355Z,99719.97
2023-02-11T21:30:09.463Z,99713.34
2023-02-11T21:32:36.410Z,99710.03
2023-02-11T21:35:03.351Z,99706.38
2023-02-11T21:37:30.278Z,99706.38
2023-02-11T21:39:57.244Z,99695.34
2023-02-11T21:42:24.250Z,99691.13
2023-02-11T21:44:52.543Z,99684.25
2023-02-11T21:47:19.443Z,99703.53
2023-02-11T21:49:46.341Z,99700.41
2023-02-11T21:52:13.348Z,99700.28
2023-02-11T21:54:40.276Z,99685.38
2023-02-11T21:57:07.188Z,99705.13
2023-02-11T21:59:34.165Z,99696.75
2023-02-11T22:02:02.551Z,99687.25
2023-02-11T22:04:29.489Z,99696.09
2023-02-11T22:06:56.426Z,99689.66
2023-02-11T22:09:23.390Z,99695.28
2023-02-11T22:11:50.421Z,99688.03
2023-02-11T22:14:17.391Z,99680.16
2023-02-11T22:16:45.317Z,99683.25
2023-02-11T22:19:14.692Z,99678.22
2023-02-11T22:21:43.245Z,99677.63
2023-02-11T22:24:10.282Z,99681.63
2023-02-11T22:26:38.066Z,99680.53
2023-02-11T22:29:05.006Z,99686.34
2023-02-11T22:31:33.840Z,99673.63
2023-02-11T22:34:02.238Z,99686.84
2023-02-11T22:36:32.531Z,99683.63
2023-02-11T22:39:01.813Z,99686.53
2023-02-11T22:41:29.144Z,99696.84
2023-02-11T22:43:56.522Z,99689.50
2023-02-11T22:46:23.514Z,99694.00
2023-02-11T22:48:51.213Z,99687.69
2023-02-11T22:51:20.385Z,99681.59
2023-02-11T22:53:53.332Z,99675.41
2023-02-11T22:56:20.960Z,99686.09
2023-02-11T22:58:48.158Z,99678.41
2023-02-11T23:01:15.567Z,99675.78
2023-02-11T23:03:42.828Z,99672.19
2023-02-11T23:06:10.801Z,99675.53
2023-02-11T23:08:38.781Z,99670.38
2023-02-11T23:11:09.850Z,99685.53
2023-02-11T23:13:39.034Z,99679.66
2023-02-11T23:16:08.078Z,99673.91
2023-02-11T23:18:36.174Z,99660.50
2023-02-11T23:21:05.117Z,99666.44
2023-02-11T23:23:32.139Z,99649.03
2023-02-11T23:25:59.064Z,99646.97
2023-02-11T23:28:27.787Z,99659.09
2023-02-11T23:30:55.084Z,99649.81
2023-02-11T23:33:23.044Z,99648.56
2023-02-11T23:35:49.964Z,99648.78
2023-02-11T23:38:16.917Z,99646.50
2023-02-11T23:40:43.884Z,99636.63
2023-02-11T23:43:10.780Z,99642.00
2023-02-11T23:45:39.063Z,99656.56
2023-02-11T23:48:05.958Z,99650.81
2023-02-11T23:50:33.880Z,99631.44
2023-02-11T23:53:00.794Z,99635.56
2023-02-11T23:55:27.709Z,99634.09
2023-02-11T23:57:54.608Z,99628.34
